createdAt,value
2019-03-08T00:00:14.755Z,81.8
2019-03-08T00:01:14.779Z,81.6
2019-03-08T00:02:14.066Z,81.8
2019-03-08T00:03:14.351Z,81.9
2019-03-08T00:04:14.618Z,81.7
2019-03-08T00:05:14.910Z,81.8
2019-03-08T00:06:14.482Z,81.7
2019-03-08T00:07:14.007Z,81.5
2019-03-08T00:08:14.286Z,81.5
2019-03-08T00:09:14.572Z,81.3
2019-03-08T00:10:14.856Z,81.1
2019-03-08T00:11:14.886Z,81.5
2019-03-08T00:12:14.166Z,81.7
2019-03-08T00:13:14.440Z,82.1
2019-03-08T00:14:14.956Z,82.2
2019-03-08T00:15:14.469Z,81.7
2019-03-08T00:16:14.747Z,81.3
2019-03-08T00:17:14.029Z,81.5
2019-03-08T00:18:14.306Z,81.5
2019-03-08T00:19:14.586Z,81.9
2019-03-08T00:20:14.870Z,81.7
2019-03-08T00:21:14.916Z,81.6
2019-03-08T00:22:14.478Z,81.7
2019-03-08T00:23:14.032Z,81.6
2019-03-08T00:24:14.321Z,81.8
2019-03-08T00:25:14.605Z,81.2
2019-03-08T00:26:14.891Z,81.0
2019-03-08T00:27:14.165Z,81.3
2019-03-08T00:28:14.455Z,81.3
2019-03-08T00:29:14.772Z,81.5
2019-03-08T00:30:14.355Z,81.8
2019-03-08T00:31:14.130Z,81.7
2019-03-08T00:32:14.420Z,81.3
2019-03-08T00:33:14.693Z,81.7
2019-03-08T00:34:13.966Z,81.2
2019-03-08T00:35:14.253Z,81.0
2019-03-08T00:36:14.530Z,81.2
2019-03-08T00:37:14.819Z,81.0
2019-03-08T00:38:14.300Z,80.9
2019-03-08T00:39:14.872Z,80.3
2019-03-08T00:40:14.177Z,80.4
2019-03-08T00:41:14.220Z,80.9
2019-03-08T00:42:14.510Z,80.8
2019-03-08T00:43:14.799Z,80.3
2019-03-08T00:44:14.079Z,80.8
2019-03-08T00:45:14.396Z,80.7
2019-03-08T00:46:14.756Z,81.2
2019-03-08T00:47:14.191Z,81.1
2019-03-08T00:48:14.464Z,80.5
2019-03-08T00:49:14.748Z,80.5
2019-03-08T00:50:14.042Z,80.6
2019-03-08T00:51:14.071Z,80.8
2019-03-08T00:52:14.346Z,80.9
2019-03-08T00:53:15.903Z,80.0
2019-03-08T00:54:14.192Z,80.5
2019-03-08T00:55:14.477Z,80.5
2019-03-08T00:56:14.756Z,80.6
2019-03-08T00:57:14.045Z,80.2
2019-03-08T00:58:14.331Z,80.3
2019-03-08T00:59:14.637Z,80.5
2019-03-08T01:00:14.939Z,80.2
2019-03-08T01:01:13.985Z,80.7
2019-03-08T01:02:14.501Z,80.5
2019-03-08T01:03:13.971Z,80.3
2019-03-08T01:04:14.261Z,80.4
2019-03-08T01:05:14.543Z,80.8
2019-03-08T01:06:15.622Z,81.2
2019-03-08T01:07:14.899Z,81.0
2019-03-08T01:08:14.190Z,81.3
2019-03-08T01:09:14.484Z,81.7
2019-03-08T01:10:14.960Z,81.5
2019-03-08T01:11:14.808Z,81.9
2019-03-08T01:12:14.093Z,81.9
2019-03-08T01:13:14.378Z,82.1
2019-03-08T01:14:14.647Z,82.0
2019-03-08T01:15:15.056Z,82.0
2019-03-08T01:16:14.376Z,82.7
2019-03-08T01:17:14.645Z,82.6
2019-03-08T01:18:15.235Z,82.4
2019-03-08T01:19:14.719Z,82.0
2019-03-08T01:20:14.004Z,81.8
2019-03-08T01:21:14.050Z,81.5
2019-03-08T01:22:14.330Z,82.0
2019-03-08T01:23:14.602Z,81.3
2019-03-08T01:24:14.885Z,81.6
2019-03-08T01:25:14.169Z,81.8
2019-03-08T01:26:14.640Z,80.8
2019-03-08T01:27:14.162Z,80.6
2019-03-08T01:28:14.443Z,80.3
2019-03-08T01:29:14.728Z,80.6
2019-03-08T01:30:14.017Z,80.5
2019-03-08T01:31:14.072Z,79.4
2019-03-08T01:32:14.341Z,79.8
2019-03-08T01:33:14.624Z,80.3
2019-03-08T01:34:15.206Z,80.2
2019-03-08T01:35:14.658Z,80.1
2019-03-08T01:36:13.914Z,79.7
2019-03-08T01:37:14.198Z,80.0
2019-03-08T01:38:14.483Z,79.4
2019-03-08T01:39:14.753Z,80.0
2019-03-08T01:40:14.033Z,79.8
2019-03-08T01:41:14.074Z,80.4
2019-03-08T01:42:14.514Z,80.6
2019-03-08T01:43:14.082Z,80.8
2019-03-08T01:44:14.332Z,80.7
2019-03-08T01:45:14.617Z,80.6
2019-03-08T01:46:14.916Z,80.3
2019-03-08T01:47:14.190Z,81.2
2019-03-08T01:48:14.457Z,80.1
2019-03-08T01:49:14.754Z,80.2
2019-03-08T01:50:14.127Z,80.7
2019-03-08T01:51:14.098Z,80.0
2019-03-08T01:52:14.381Z,80.0
2019-03-08T01:53:14.654Z,80.5
2019-03-08T01:54:14.909Z,80.6
2019-03-08T01:55:14.185Z,81.2
2019-03-08T01:56:14.468Z,81.1
2019-03-08T01:57:14.761Z,80.9
2019-03-08T01:58:14.338Z,80.8
2019-03-08T01:59:14.899Z,80.8
2019-03-08T02:00:14.184Z,80.8
2019-03-08T02:01:14.250Z,81.5
2019-03-08T02:02:14.518Z,80.8
2019-03-08T02:03:14.811Z,81.3
2019-03-08T02:04:14.086Z,81.2
2019-03-08T02:05:14.381Z,81.2
2019-03-08T02:06:14.801Z,81.2
2019-03-08T02:07:14.247Z,81.7
2019-03-08T02:08:14.522Z,81.2
2019-03-08T02:09:14.803Z,81.2
2019-03-08T02:10:14.115Z,81.0
2019-03-08T02:11:14.137Z,81.0
2019-03-08T02:12:14.412Z,80.9
2019-03-08T02:13:14.704Z,81.0
2019-03-08T02:14:14.156Z,80.0
2019-03-08T02:15:14.514Z,79.5
2019-03-08T02:16:14.774Z,79.5
2019-03-08T02:17:14.044Z,80.5
2019-03-08T02:18:14.328Z,80.6
2019-03-08T02:19:14.580Z,80.5
2019-03-08T02:20:14.876Z,80.4
2019-03-08T02:21:14.928Z,80.8
2019-03-08T02:22:14.438Z,80.5
2019-03-08T02:23:14.864Z,80.8
2019-03-08T02:24:14.155Z,80.9
2019-03-08T02:25:14.442Z,80.8
2019-03-08T02:26:14.761Z,80.2
2019-03-08T02:27:14.025Z,80.4
2019-03-08T02:28:14.286Z,80.7
2019-03-08T02:29:14.563Z,81.1
2019-03-08T02:30:15.104Z,81.2
2019-03-08T02:31:14.892Z,81.5
2019-03-08T02:32:14.205Z,81.4
2019-03-08T02:33:14.488Z,81.0
2019-03-08T02:34:14.740Z,80.2
2019-03-08T02:35:14.034Z,80.1
2019-03-08T02:36:14.334Z,80.2
2019-03-08T02:37:14.616Z,80.6
2019-03-08T02:38:15.173Z,80.8
2019-03-08T02:39:14.669Z,81.3
2019-03-08T02:40:13.957Z,81.5
2019-03-08T02:41:13.994Z,81.4
2019-03-08T02:42:14.266Z,81.5
2019-03-08T02:43:14.547Z,81.5
2019-03-08T02:44:14.819Z,81.8
2019-03-08T02:45:14.115Z,81.9
2019-03-08T02:46:14.660Z,81.7
2019-03-08T02:47:14.129Z,81.7
2019-03-08T02:48:14.411Z,81.7
2019-03-08T02:49:14.702Z,82.0
2019-03-08T02:50:13.995Z,82.0
2019-03-08T02:51:14.057Z,81.4
2019-03-08T02:52:14.608Z,81.5
2019-03-08T02:53:14.879Z,81.8
2019-03-08T02:54:14.196Z,81.0
2019-03-08T02:55:14.527Z,81.0
2019-03-08T02:56:14.820Z,81.4
2019-03-08T02:57:14.112Z,80.8
2019-03-08T02:58:14.391Z,81.2
2019-03-08T02:59:14.673Z,81.3
2019-03-08T03:00:13.980Z,81.4
2019-03-08T03:01:14.027Z,82.1
2019-03-08T03:02:14.494Z,81.9
2019-03-08T03:03:14.932Z,81.8
2019-03-08T03:04:14.225Z,81.3
2019-03-08T03:05:14.510Z,81.6
2019-03-08T03:06:14.792Z,82.1
2019-03-08T03:07:14.067Z,81.6
2019-03-08T03:08:14.500Z,81.5
2019-03-08T03:09:14.767Z,81.9
2019-03-08T03:10:14.087Z,81.8
2019-03-08T03:11:14.102Z,82.1
2019-03-08T03:12:14.387Z,82.0
2019-03-08T03:13:14.686Z,82.0
2019-03-08T03:14:13.959Z,82.1
2019-03-08T03:15:14.245Z,82.1
2019-03-08T03:16:14.527Z,82.1
2019-03-08T03:17:14.807Z,82.2
2019-03-08T03:18:14.079Z,82.0
2019-03-08T03:19:14.358Z,81.5
2019-03-08T03:20:14.630Z,81.5
2019-03-08T03:21:14.709Z,81.7
2019-03-08T03:22:13.980Z,81.5
2019-03-08T03:23:14.258Z,81.2
2019-03-08T03:24:14.540Z,80.7
2019-03-08T03:25:14.845Z,80.6
2019-03-08T03:26:14.139Z,80.6
2019-03-08T03:27:14.410Z,80.0
2019-03-08T03:28:14.690Z,80.6
2019-03-08T03:29:13.966Z,80.2
2019-03-08T03:30:14.526Z,80.0
2019-03-08T03:31:14.577Z,79.9
2019-03-08T03:32:14.858Z,79.8
2019-03-08T03:33:14.152Z,79.8
2019-03-08T03:34:14.433Z,79.3
2019-03-08T03:35:14.713Z,79.6
2019-03-08T03:36:13.982Z,78.9
2019-03-08T03:37:14.262Z,79.2
2019-03-08T03:38:14.538Z,78.7
2019-03-08T03:39:14.819Z,78.1
2019-03-08T03:40:14.099Z,78.3
2019-03-08T03:41:14.150Z,78.6
2019-03-08T03:42:14.461Z,78.2
2019-03-08T03:43:14.740Z,78.5
2019-03-08T03:44:14.013Z,78.8
2019-03-08T03:45:14.319Z,78.5
2019-03-08T03:46:14.599Z,78.1
2019-03-08T03:47:14.847Z,77.9
2019-03-08T03:48:14.122Z,77.8
2019-03-08T03:49:14.403Z,78.1
2019-03-08T03:50:14.687Z,77.8
2019-03-08T03:51:14.729Z,77.5
2019-03-08T03:52:14.010Z,78.2
2019-03-08T03:53:14.292Z,77.5
2019-03-08T03:54:14.572Z,77.2
2019-03-08T03:55:14.863Z,77.0
2019-03-08T03:56:14.134Z,77.2
2019-03-08T03:57:14.411Z,77.1
2019-03-08T03:58:14.694Z,77.2
2019-03-08T03:59:13.982Z,77.2
2019-03-08T04:00:14.275Z,77.0
2019-03-08T04:01:14.295Z,77.0
2019-03-08T04:02:14.574Z,77.1
2019-03-08T04:03:14.880Z,77.2
2019-03-08T04:04:14.163Z,77.1
2019-03-08T04:05:14.442Z,77.6
2019-03-08T04:06:14.713Z,77.1
2019-03-08T04:07:13.985Z,76.7
2019-03-08T04:08:14.279Z,77.1
2019-03-08T04:09:14.571Z,77.0
2019-03-08T04:10:14.873Z,76.4
2019-03-08T04:11:14.885Z,76.8
2019-03-08T04:12:14.400Z,76.8
2019-03-08T04:13:14.679Z,76.8
2019-03-08T04:14:13.959Z,76.5
2019-03-08T04:15:14.248Z,76.8
2019-03-08T04:16:14.537Z,76.7
2019-03-08T04:17:14.817Z,76.3
2019-03-08T04:18:14.089Z,76.7
2019-03-08T04:19:14.361Z,76.7
2019-03-08T04:20:14.637Z,77.0
2019-03-08T04:21:14.708Z,76.9
2019-03-08T04:22:14.026Z,76.8
2019-03-08T04:23:14.294Z,76.7
2019-03-08T04:24:14.572Z,76.9
2019-03-08T04:25:14.859Z,76.5
2019-03-08T04:26:14.141Z,77.0
2019-03-08T04:27:14.415Z,76.8
2019-03-08T04:28:14.695Z,76.8
2019-03-08T04:29:13.990Z,76.8
2019-03-08T04:30:14.290Z,77.2
2019-03-08T04:31:14.317Z,77.6
2019-03-08T04:32:14.588Z,77.6
2019-03-08T04:33:14.873Z,78.0
2019-03-08T04:34:14.151Z,78.2
2019-03-08T04:35:14.434Z,78.6
2019-03-08T04:36:14.717Z,79.1
2019-03-08T04:37:13.994Z,78.8
2019-03-08T04:38:14.283Z,78.7
2019-03-08T04:39:14.559Z,78.8
2019-03-08T04:40:14.839Z,78.2
2019-03-08T04:41:14.905Z,78.2
2019-03-08T04:42:14.171Z,78.5
2019-03-08T04:43:14.452Z,78.5
2019-03-08T04:44:14.730Z,78.8
2019-03-08T04:45:14.014Z,79.0
2019-03-08T04:46:14.305Z,79.5
2019-03-08T04:47:14.594Z,78.8
2019-03-08T04:48:14.893Z,79.1
2019-03-08T04:49:14.168Z,79.1
2019-03-08T04:50:14.463Z,79.2
2019-03-08T04:51:14.502Z,79.2
2019-03-08T04:52:14.785Z,79.6
2019-03-08T04:53:14.071Z,80.0
2019-03-08T04:54:14.446Z,79.6
2019-03-08T04:55:17.833Z,79.4
2019-03-08T04:56:14.739Z,79.2
2019-03-08T04:57:14.022Z,79.6
2019-03-08T04:58:14.331Z,79.6
2019-03-08T04:59:14.611Z,79.8
2019-03-08T05:00:14.924Z,79.8
2019-03-08T05:01:13.957Z,80.1
2019-03-08T05:02:14.483Z,79.7
2019-03-08T05:03:14.863Z,79.5
2019-03-08T05:04:14.147Z,79.3
2019-03-08T05:05:14.464Z,79.6
2019-03-08T05:06:14.745Z,79.5
2019-03-08T05:07:14.013Z,79.5
2019-03-08T05:08:14.303Z,80.1
2019-03-08T05:09:14.590Z,80.2
2019-03-08T05:10:14.872Z,80.4
2019-03-08T05:11:14.884Z,80.2
2019-03-08T05:12:14.158Z,80.2
2019-03-08T05:13:14.428Z,80.2
2019-03-08T05:14:14.724Z,80.2
2019-03-08T05:15:14.018Z,80.4
2019-03-08T05:16:14.295Z,80.7
2019-03-08T05:17:14.575Z,80.3
2019-03-08T05:18:15.060Z,80.5
2019-03-08T05:19:14.365Z,80.6
2019-03-08T05:20:14.665Z,80.5
2019-03-08T05:21:14.705Z,80.5
2019-03-08T05:22:13.996Z,80.5
2019-03-08T05:23:14.276Z,80.6
2019-03-08T05:24:14.559Z,80.3
2019-03-08T05:25:14.916Z,80.5
2019-03-08T05:26:14.383Z,80.3
2019-03-08T05:27:14.789Z,80.7
2019-03-08T05:28:14.081Z,80.8
2019-03-08T05:29:14.367Z,80.4
2019-03-08T05:30:14.660Z,80.3
2019-03-08T05:31:14.698Z,80.3
2019-03-08T05:32:13.976Z,80.6
2019-03-08T05:33:14.262Z,80.2
2019-03-08T05:34:14.796Z,80.8
2019-03-08T05:35:14.285Z,80.2
2019-03-08T05:36:14.574Z,80.5
2019-03-08T05:37:14.844Z,80.5
2019-03-08T05:38:14.126Z,79.6
2019-03-08T05:39:14.412Z,79.5
2019-03-08T05:40:14.734Z,79.7
2019-03-08T05:41:14.752Z,79.8
2019-03-08T05:42:14.265Z,79.9
2019-03-08T05:43:14.775Z,79.2
2019-03-08T05:44:14.091Z,79.1
2019-03-08T05:45:14.374Z,79.4
2019-03-08T05:46:14.657Z,79.7
2019-03-08T05:47:13.963Z,79.3
2019-03-08T05:48:14.245Z,79.3
2019-03-08T05:49:14.529Z,78.8
2019-03-08T05:50:15.105Z,78.2
2019-03-08T05:51:14.849Z,78.3
2019-03-08T05:52:14.171Z,78.3
2019-03-08T05:53:14.442Z,78.6
2019-03-08T05:54:14.727Z,78.3
2019-03-08T05:55:14.026Z,77.8
2019-03-08T05:56:14.309Z,77.8
2019-03-08T05:57:14.596Z,77.8
2019-03-08T05:58:15.099Z,78.1
2019-03-08T05:59:14.657Z,78.0
2019-03-08T06:00:13.940Z,78.0
2019-03-08T06:01:14.007Z,78.0
2019-03-08T06:02:14.305Z,77.5
2019-03-08T06:03:14.581Z,77.8
2019-03-08T06:04:15.026Z,77.1
2019-03-08T06:05:14.322Z,77.5
2019-03-08T06:06:14.828Z,77.3
2019-03-08T06:07:14.319Z,77.3
2019-03-08T06:08:14.605Z,77.3
2019-03-08T06:09:14.876Z,77.2
2019-03-08T06:10:14.160Z,77.2
2019-03-08T06:11:14.197Z,77.5
2019-03-08T06:12:14.470Z,77.3
2019-03-08T06:13:14.758Z,77.8
2019-03-08T06:14:14.044Z,77.3
2019-03-08T06:15:14.331Z,77.7
2019-03-08T06:16:14.606Z,77.2
2019-03-08T06:17:14.883Z,77.3
2019-03-08T06:18:14.163Z,77.8
2019-03-08T06:19:14.427Z,77.7
2019-03-08T06:20:14.921Z,77.6
2019-03-08T06:21:14.898Z,77.8
2019-03-08T06:22:14.344Z,77.5
2019-03-08T06:23:14.632Z,77.5
2019-03-08T06:24:14.908Z,76.8
2019-03-08T06:25:14.202Z,76.8
2019-03-08T06:26:14.484Z,77.2
2019-03-08T06:27:14.769Z,77.7
2019-03-08T06:28:14.063Z,77.9
2019-03-08T06:29:14.595Z,77.7
2019-03-08T06:30:14.141Z,77.4
2019-03-08T06:31:14.209Z,77.2
2019-03-08T06:32:14.480Z,77.5
2019-03-08T06:33:14.760Z,77.5
2019-03-08T06:34:14.043Z,77.3
2019-03-08T06:35:14.325Z,77.6
2019-03-08T06:36:14.630Z,77.8
2019-03-08T06:37:15.109Z,77.8
2019-03-08T06:38:14.656Z,78.0
2019-03-08T06:39:14.926Z,78.2
2019-03-08T06:40:14.209Z,78.3
2019-03-08T06:41:14.249Z,78.2
2019-03-08T06:42:14.561Z,78.4
2019-03-08T06:43:14.838Z,78.7
2019-03-08T06:44:14.120Z,78.5
2019-03-08T06:45:16.849Z,78.6
2019-03-08T06:46:14.451Z,78.4
2019-03-08T06:47:14.745Z,78.5
2019-03-08T06:48:14.076Z,78.5
2019-03-08T06:49:14.353Z,78.5
2019-03-08T06:50:14.645Z,78.3
2019-03-08T06:51:14.669Z,78.8
2019-03-08T06:52:13.951Z,78.2
2019-03-08T06:53:14.225Z,78.6
2019-03-08T06:54:14.514Z,78.5
2019-03-08T06:55:14.835Z,78.1
2019-03-08T06:56:14.121Z,77.8
2019-03-08T06:57:14.399Z,77.5
2019-03-08T06:58:14.677Z,77.8
2019-03-08T06:59:13.954Z,77.4
2019-03-08T07:00:14.264Z,77.8
2019-03-08T07:01:14.295Z,77.7
2019-03-08T07:02:14.582Z,77.1
2019-03-08T07:03:14.868Z,77.4
2019-03-08T07:04:14.149Z,76.8
2019-03-08T07:05:14.434Z,77.3
2019-03-08T07:06:14.730Z,77.2
2019-03-08T07:07:14.021Z,76.5
2019-03-08T07:08:14.548Z,76.0
2019-03-08T07:09:14.033Z,76.0
2019-03-08T07:10:14.342Z,75.8
2019-03-08T07:11:14.364Z,75.8
2019-03-08T07:12:14.647Z,75.8
2019-03-08T07:13:14.930Z,76.0
2019-03-08T07:14:14.225Z,76.2
2019-03-08T07:15:14.508Z,76.2
2019-03-08T07:16:15.200Z,75.9
2019-03-08T07:17:14.732Z,75.7
2019-03-08T07:18:14.031Z,76.0
2019-03-08T07:19:14.315Z,75.3
2019-03-08T07:20:14.615Z,75.7
2019-03-08T07:21:14.656Z,75.7
2019-03-08T07:22:13.936Z,75.1
2019-03-08T07:23:14.227Z,74.8
2019-03-08T07:24:14.635Z,74.8
2019-03-08T07:25:14.169Z,74.7
2019-03-08T07:26:14.495Z,74.8
2019-03-08T07:27:14.791Z,74.8
2019-03-08T07:28:14.064Z,74.5
2019-03-08T07:29:14.353Z,74.7
2019-03-08T07:30:14.658Z,74.8
2019-03-08T07:31:14.699Z,74.2
2019-03-08T07:32:14.154Z,74.2
2019-03-08T07:33:14.711Z,74.1
2019-03-08T07:34:14.001Z,73.4
2019-03-08T07:35:14.291Z,73.6
2019-03-08T07:36:14.565Z,73.6
2019-03-08T07:37:14.836Z,73.5
2019-03-08T07:38:14.122Z,73.9
2019-03-08T07:39:14.388Z,74.2
2019-03-08T07:40:16.156Z,74.4
2019-03-08T07:41:14.752Z,74.0
2019-03-08T07:42:14.023Z,73.8
2019-03-08T07:43:14.295Z,73.8
2019-03-08T07:44:14.574Z,73.7
2019-03-08T07:45:14.841Z,73.5
2019-03-08T07:46:14.115Z,74.0
2019-03-08T07:47:14.395Z,74.0
2019-03-08T07:48:14.954Z,73.9
2019-03-08T07:49:14.505Z,73.5
2019-03-08T07:50:14.801Z,73.8
2019-03-08T07:51:14.843Z,73.8
2019-03-08T07:52:14.123Z,73.8
2019-03-08T07:53:14.409Z,73.8
2019-03-08T07:54:14.689Z,73.8
2019-03-08T07:55:13.984Z,74.1
2019-03-08T07:56:14.480Z,73.2
2019-03-08T07:57:13.972Z,73.3
2019-03-08T07:58:14.261Z,73.0
2019-03-08T07:59:14.539Z,73.1
2019-03-08T08:00:14.841Z,72.2
2019-03-08T08:01:14.901Z,71.6
2019-03-08T08:02:14.187Z,71.8
2019-03-08T08:03:14.477Z,72.2
2019-03-08T08:04:14.963Z,71.1
2019-03-08T08:05:14.355Z,71.2
2019-03-08T08:06:14.648Z,71.1
2019-03-08T08:07:14.928Z,71.0
2019-03-08T08:08:14.222Z,70.9
2019-03-08T08:09:14.510Z,70.8
2019-03-08T08:10:14.798Z,70.7
2019-03-08T08:11:14.860Z,70.6
2019-03-08T08:12:14.346Z,70.4
2019-03-08T08:13:14.704Z,70.1
2019-03-08T08:14:13.987Z,70.5
2019-03-08T08:15:14.283Z,69.5
2019-03-08T08:16:14.569Z,69.7
2019-03-08T08:17:14.856Z,69.9
2019-03-08T08:18:14.128Z,69.4
2019-03-08T08:19:14.410Z,69.2
2019-03-08T08:20:16.845Z,68.8
2019-03-08T08:21:14.757Z,68.8
2019-03-08T08:22:14.043Z,68.8
2019-03-08T08:23:14.337Z,68.7
2019-03-08T08:24:14.624Z,68.6
2019-03-08T08:25:14.937Z,68.3
2019-03-08T08:26:14.218Z,68.2
2019-03-08T08:27:14.494Z,68.9
2019-03-08T08:28:14.881Z,68.5
2019-03-08T08:29:14.222Z,67.5
2019-03-08T08:30:14.502Z,68.2
2019-03-08T08:31:14.559Z,67.6
2019-03-08T08:32:14.849Z,68.2
2019-03-08T08:33:14.159Z,68.2
2019-03-08T08:34:14.434Z,68.5
2019-03-08T08:35:14.725Z,68.7
2019-03-08T08:36:14.136Z,67.1
2019-03-08T08:37:14.488Z,66.7
2019-03-08T08:38:14.788Z,67.5
2019-03-08T08:39:14.071Z,68.0
2019-03-08T08:40:14.375Z,66.8
2019-03-08T08:41:14.415Z,67.1
2019-03-08T08:42:14.682Z,66.9
2019-03-08T08:43:13.964Z,66.7
2019-03-08T08:44:14.311Z,66.7
2019-03-08T08:45:14.710Z,67.4
2019-03-08T08:46:13.999Z,66.8
2019-03-08T08:47:14.273Z,66.5
2019-03-08T08:48:15.244Z,66.5
2019-03-08T08:49:14.542Z,66.7
2019-03-08T08:50:14.847Z,66.0
2019-03-08T08:51:14.896Z,66.0
2019-03-08T08:52:14.267Z,66.5
2019-03-08T08:53:14.603Z,66.8
2019-03-08T08:54:14.884Z,66.8
2019-03-08T08:55:14.167Z,66.3
2019-03-08T08:56:14.448Z,66.1
2019-03-08T08:57:14.717Z,66.5
2019-03-08T08:58:13.999Z,65.5
2019-03-08T08:59:14.278Z,65.8
2019-03-08T09:00:14.726Z,65.8
2019-03-08T09:01:14.618Z,66.0
2019-03-08T09:02:14.906Z,66.0
2019-03-08T09:03:14.190Z,65.8
2019-03-08T09:04:14.474Z,66.5
2019-03-08T09:05:14.759Z,65.9
2019-03-08T09:06:14.026Z,65.2
2019-03-08T09:07:14.307Z,64.8
2019-03-08T09:08:14.632Z,64.2
2019-03-08T09:09:13.992Z,63.4
2019-03-08T09:10:14.285Z,62.0
2019-03-08T09:11:14.326Z,61.1
2019-03-08T09:12:14.616Z,61.6
2019-03-08T09:13:14.894Z,61.9
2019-03-08T09:14:14.182Z,62.0
2019-03-08T09:15:14.482Z,62.8
2019-03-08T09:16:14.918Z,63.7
2019-03-08T09:17:14.383Z,62.3
2019-03-08T09:18:14.665Z,62.9
2019-03-08T09:19:13.942Z,61.4
2019-03-08T09:20:14.239Z,61.1
2019-03-08T09:21:14.292Z,60.9
2019-03-08T09:22:14.573Z,61.3
2019-03-08T09:23:14.850Z,61.1
2019-03-08T09:24:14.235Z,61.3
2019-03-08T09:25:14.729Z,60.5
2019-03-08T09:26:14.006Z,61.1
2019-03-08T09:27:14.293Z,60.3
2019-03-08T09:28:14.567Z,60.6
2019-03-08T09:29:14.845Z,61.5
2019-03-08T09:30:14.142Z,62.6
2019-03-08T09:31:14.175Z,61.6
2019-03-08T09:32:14.521Z,62.1
2019-03-08T09:33:13.993Z,62.4
2019-03-08T09:34:14.281Z,62.5
2019-03-08T09:35:14.572Z,63.6
2019-03-08T09:36:14.858Z,62.6
2019-03-08T09:37:14.131Z,63.2
2019-03-08T09:38:14.396Z,63.4
2019-03-08T09:39:14.694Z,62.7
2019-03-08T09:40:14.163Z,63.0
2019-03-08T09:41:14.025Z,63.0
2019-03-08T09:42:14.308Z,62.8
2019-03-08T09:43:14.590Z,63.1
2019-03-08T09:44:14.892Z,63.1
2019-03-08T09:45:14.185Z,63.0
2019-03-08T09:46:14.458Z,63.5
2019-03-08T09:47:14.742Z,64.0
2019-03-08T09:48:14.178Z,63.3
2019-03-08T09:49:14.675Z,62.9
2019-03-08T09:50:13.965Z,62.7
2019-03-08T09:51:14.020Z,64.0
2019-03-08T09:52:14.305Z,63.6
2019-03-08T09:53:14.593Z,63.9
2019-03-08T09:54:14.871Z,64.2
2019-03-08T09:55:14.174Z,63.8
2019-03-08T09:56:14.650Z,64.5
2019-03-08T09:57:14.148Z,64.5
2019-03-08T09:58:14.433Z,64.3
2019-03-08T09:59:14.712Z,64.2
2019-03-08T10:00:14.006Z,63.8
2019-03-08T10:01:17.114Z,63.8
2019-03-08T10:02:14.422Z,63.6
2019-03-08T10:03:14.734Z,63.9
2019-03-08T10:04:14.191Z,63.7
2019-03-08T10:05:14.644Z,63.9
2019-03-08T10:06:14.946Z,64.0
2019-03-08T10:07:14.239Z,63.9
2019-03-08T10:08:14.512Z,63.8
2019-03-08T10:09:14.792Z,63.2
2019-03-08T10:10:14.081Z,63.7
2019-03-08T10:11:14.122Z,63.0
2019-03-08T10:12:14.514Z,62.8
2019-03-08T10:13:14.881Z,62.5
2019-03-08T10:14:14.150Z,62.8
2019-03-08T10:15:14.458Z,62.0
2019-03-08T10:16:14.744Z,62.0
2019-03-08T10:17:14.019Z,62.3
2019-03-08T10:18:14.301Z,62.4
2019-03-08T10:19:14.586Z,62.8
2019-03-08T10:20:14.870Z,62.6
2019-03-08T10:21:14.916Z,62.1
2019-03-08T10:22:14.197Z,62.8
2019-03-08T10:23:20.293Z,62.0
2019-03-08T10:24:14.607Z,62.7
2019-03-08T10:25:14.873Z,62.0
2019-03-08T10:26:14.156Z,62.1
2019-03-08T10:27:14.771Z,62.0
2019-03-08T10:28:14.164Z,61.9
2019-03-08T10:29:14.630Z,62.0
2019-03-08T10:30:14.928Z,61.6
2019-03-08T10:31:13.970Z,62.1
2019-03-08T10:32:14.251Z,61.8
2019-03-08T10:33:14.528Z,61.8
2019-03-08T10:34:14.837Z,61.8
2019-03-08T10:35:24.157Z,61.8
2019-03-08T10:36:14.653Z,61.8
2019-03-08T10:37:14.047Z,62.2
2019-03-08T10:38:23.057Z,62.4
2019-03-08T10:39:14.425Z,62.2
2019-03-08T10:40:14.714Z,62.2
2019-03-08T10:41:14.775Z,62.3
2019-03-08T10:42:14.070Z,62.4
2019-03-08T10:43:14.353Z,62.1
2019-03-08T10:44:15.681Z,62.4
2019-03-08T10:45:13.993Z,62.5
2019-03-08T10:46:16.085Z,62.5
2019-03-08T10:47:14.367Z,62.8
2019-03-08T10:48:14.658Z,63.6
2019-03-08T10:49:13.967Z,63.1
2019-03-08T10:50:14.267Z,62.4
2019-03-08T10:51:14.305Z,62.4
2019-03-08T10:52:18.190Z,62.5
2019-03-08T10:53:14.501Z,63.3
2019-03-08T10:54:14.814Z,62.4
2019-03-08T10:55:14.115Z,62.7
2019-03-08T10:56:14.390Z,62.3
2019-03-08T10:57:14.677Z,62.5
2019-03-08T10:58:13.950Z,62.2
2019-03-08T10:59:14.243Z,62.3
2019-03-08T11:00:14.730Z,62.7
2019-03-08T11:01:14.607Z,62.5
2019-03-08T11:02:14.880Z,62.4
2019-03-08T11:03:14.168Z,62.0
2019-03-08T11:04:15.053Z,62.5
2019-03-08T11:05:14.335Z,61.8
2019-03-08T11:06:14.632Z,61.5
2019-03-08T11:07:14.919Z,62.0
2019-03-08T11:08:14.362Z,61.6
2019-03-08T11:09:14.824Z,62.0
2019-03-08T11:10:14.119Z,61.0
2019-03-08T11:11:14.164Z,61.3
2019-03-08T11:12:14.444Z,61.9
2019-03-08T11:13:14.724Z,61.5
2019-03-08T11:14:14.026Z,62.0
2019-03-08T11:15:24.554Z,62.2
2019-03-08T11:16:14.300Z,61.9
2019-03-08T11:17:14.759Z,61.4
2019-03-08T11:18:14.080Z,61.0
2019-03-08T11:19:14.377Z,61.8
2019-03-08T11:20:14.678Z,61.2
2019-03-08T11:21:15.173Z,61.5
2019-03-08T11:22:14.460Z,62.3
2019-03-08T11:23:14.740Z,61.8
2019-03-08T11:24:14.017Z,62.0
2019-03-08T11:25:14.319Z,61.8
2019-03-08T11:26:14.603Z,61.5
2019-03-08T11:27:14.893Z,61.8
2019-03-08T11:28:21.419Z,61.5
2019-03-08T11:29:14.747Z,61.4
2019-03-08T11:30:14.041Z,61.4
2019-03-08T11:31:14.110Z,61.2
2019-03-08T11:32:23.469Z,60.7
2019-03-08T11:33:14.810Z,60.6
2019-03-08T11:34:14.099Z,60.8
2019-03-08T11:35:14.367Z,60.8
2019-03-08T11:36:14.649Z,61.1
2019-03-08T11:37:14.923Z,61.2
2019-03-08T11:38:14.210Z,61.5
2019-03-08T11:39:14.511Z,60.7
2019-03-08T11:40:14.794Z,60.9
2019-03-08T11:41:14.834Z,60.8
2019-03-08T11:42:14.116Z,61.1
2019-03-08T11:43:14.404Z,61.4
2019-03-08T11:44:14.679Z,61.4
2019-03-08T11:45:13.970Z,60.8
2019-03-08T11:46:14.255Z,61.2
2019-03-08T11:47:14.533Z,61.2
2019-03-08T11:48:14.799Z,61.0
2019-03-08T11:49:14.078Z,61.8
2019-03-08T11:50:14.419Z,61.7
2019-03-08T11:51:14.421Z,61.8
2019-03-08T11:52:14.691Z,61.5
2019-03-08T11:53:13.970Z,61.1
2019-03-08T11:54:14.277Z,61.2
2019-03-08T11:55:14.570Z,61.1
2019-03-08T11:56:14.841Z,61.6
2019-03-08T11:57:14.194Z,61.9
2019-03-08T11:58:14.465Z,61.5
2019-03-08T11:59:14.790Z,61.5
2019-03-08T12:00:14.077Z,61.8
2019-03-08T12:01:14.139Z,61.8
2019-03-08T12:02:14.421Z,61.2
2019-03-08T12:03:14.700Z,61.0
2019-03-08T12:04:13.979Z,60.9
2019-03-08T12:05:14.536Z,60.8
2019-03-08T12:06:14.057Z,62.0
2019-03-08T12:07:14.335Z,60.9
2019-03-08T12:08:14.621Z,60.5
2019-03-08T12:09:14.915Z,61.1
2019-03-08T12:10:14.204Z,60.8
2019-03-08T12:11:14.244Z,60.0
2019-03-08T12:12:14.517Z,60.1
2019-03-08T12:13:15.048Z,60.7
2019-03-08T12:14:14.560Z,60.8
2019-03-08T12:15:14.867Z,61.3
2019-03-08T12:16:14.139Z,61.1
2019-03-08T12:17:14.428Z,61.0
2019-03-08T12:18:14.709Z,61.2
2019-03-08T12:19:14.001Z,60.9
2019-03-08T12:20:14.295Z,60.7
2019-03-08T12:21:14.572Z,60.3
2019-03-08T12:22:14.085Z,60.5
2019-03-08T12:23:14.369Z,60.5
2019-03-08T12:24:14.649Z,60.8
2019-03-08T12:25:14.943Z,61.5
2019-03-08T12:26:14.221Z,61.4
2019-03-08T12:27:14.545Z,60.4
2019-03-08T12:28:14.819Z,60.8
2019-03-08T12:29:14.335Z,60.8
2019-03-08T12:30:14.828Z,60.5
2019-03-08T12:31:14.855Z,60.9
2019-03-08T12:32:14.130Z,60.2
2019-03-08T12:33:14.409Z,60.4
2019-03-08T12:34:14.682Z,60.5
2019-03-08T12:35:13.958Z,60.5
2019-03-08T12:36:14.450Z,60.9
2019-03-08T12:37:14.927Z,60.9
2019-03-08T12:38:14.365Z,60.9
2019-03-08T12:39:14.639Z,60.9
2019-03-08T12:40:14.955Z,60.8
2019-03-08T12:41:13.992Z,60.7
2019-03-08T12:42:14.271Z,61.7
2019-03-08T12:43:14.557Z,62.0
2019-03-08T12:44:14.845Z,61.7
2019-03-08T12:45:14.213Z,62.1
2019-03-08T12:46:14.658Z,63.2
2019-03-08T12:47:13.935Z,63.1
2019-03-08T12:48:23.551Z,63.8
2019-03-08T12:49:14.202Z,64.5
2019-03-08T12:50:14.490Z,64.8
2019-03-08T12:51:14.545Z,64.8
2019-03-08T12:52:14.824Z,65.4
2019-03-08T12:53:14.124Z,65.6
2019-03-08T12:54:14.416Z,67.2
2019-03-08T12:55:14.719Z,67.2
2019-03-08T12:56:14.018Z,67.4
2019-03-08T12:57:14.306Z,67.0
2019-03-08T12:58:14.593Z,67.4
2019-03-08T12:59:14.884Z,67.6
2019-03-08T13:00:14.179Z,68.2
2019-03-08T13:01:14.219Z,68.3
2019-03-08T13:02:14.751Z,69.0
2019-03-08T13:03:14.271Z,69.5
2019-03-08T13:04:14.565Z,69.4
2019-03-08T13:05:14.863Z,71.0
2019-03-08T13:06:14.141Z,73.3
2019-03-08T13:07:14.419Z,75.5
2019-03-08T13:08:14.693Z,82.2
2019-03-08T13:09:13.973Z,85.0
2019-03-08T13:10:14.530Z,86.4
2019-03-08T13:11:14.322Z,87.0
2019-03-08T13:12:14.610Z,86.7
2019-03-08T13:13:14.918Z,86.5
2019-03-08T13:14:14.198Z,87.0
2019-03-08T13:15:14.507Z,87.2
2019-03-08T13:16:14.793Z,86.8
2019-03-08T13:17:14.089Z,86.5
2019-03-08T13:18:14.542Z,87.8